Wichita, KS (67201)

6:27 PM CST on February 22, 2018 (GMT -0600)
KMUW - Old Town | | Change Station
Active Advisory: Winter Weather Advisory

Elev 1322 ft 37.69 °N, 97.33 °W | Updated 55 seconds ago

Overcast
Overcast
33.4 °F
Feels Like 33 °F
N
0.0
Wind Variable Wind from WSW
Gusts 0.0 mph

Today
High -- | Low -- °F
--% Chance of Precip.
Yesterday
High -- | Low -- °F
Precip. -- in
Pressure 30.13 in
Visibility 1.2 miles
Clouds Mostly Cloudy 600 ft
Overcast 2800 ft
Windchill 33 °F
Dew Point 17 °F
Humidity 50%
Rainfall 0.07 in
Snow Depth Not available.
7:10 AM 6:16 PM
Waxing Crescent, 46% visible
SPECI KICT 230024Z 00000KT 1 1/4SM -FZDZ BR BKN006 OVC028 00/00 A3013 RMK AO2 FZDZB00 P0000 I1000 T00000000
Pressure 30.13 in
Visibility 1.2 miles
Clouds Mostly Cloudy 600 ft
Overcast 2800 ft
Windchill 33 °F
Dew Point 17 °F
Humidity 50%
Rainfall 0.07 in
Snow Depth Not available.
7:10 AM 6:16 PM
Waxing Crescent, 46% visible
SPECI KICT 230024Z 00000KT 1 1/4SM -FZDZ BR BKN006 OVC028 00/00 A3013 RMK AO2 FZDZB00 P0000 I1000 T00000000

Get Your Daily Forecast Email!

Thanks for signing up!

Be on the lookout for a verification email in your inbox.

You'll start receiving severe weather alerts in your inbox..

×

10-Day Weather Forecast

Almanac

Astronomy

Feb. 22, 2018 Rise Set
Actual Time
Civil Twilight
Nautical Twilight
Astronomical Twilight
Moon
Length of Visible Light
Length of Day
Tomorrow will be .
, % of the Moon is Illuminated

Today's Extremes

State Highs State Lows

Community

WunderPhotos

Category 6

Welcome to Category 6. This is the collective home for Weather Underground's featured writeups by Dr. Jeff Masters (right), Bob Henson (left), Chris Burt, and other regular contributors.

Nearby

Air Quality

  Air Quality AQ Index Pollutant
Not available.

Snow Depth

Station Depth Elevation

Earthquake Activity

City Distance Mag. Time & Date
Minimum magnitude displayed is 2.5.

Coastal Water Temperatures

Place Temperature

Stations

Nearby Weather Stations

Station Location Temp. Windchill Dew Point Humidity Wind Precip. Elev Updated Type
                   

Watches & Warnings

Winter Weather Advisory
Issued: 5:56 PM CST Feb. 22, 2018 – National Weather Service

... Winter Weather Advisory now in effect until 9 PM CST this
evening...

* what... freezing drizzle will linger into the early evening hours
before diminishing.

* Where... portions of central and south central Kansas.

* When... until 9 PM CST this evening.

* Additional details... ice may result in difficult travel
conditions, especially on elevated roads during the evening
commute. Be prepared for reduced visibilities at times.

Precautionary/preparedness actions...

A Winter Weather Advisory means that periods of snow, sleet or
freezing rain will cause travel difficulties. Be prepared for
slippery roads and limited visibilities, and use caution while
driving. The latest Road conditions for the state you are calling
from can be obtained by calling 5 1 1.